Time;durP1;ratioP1;P1;durP2;ratioP2;P2;SDS_P1;SDS_P2;PMS_P1;PMS_P2;Temp;Humidity;BMP_temperature;BMP_pressure;BME280_temperature;BME280_humidity;BME280_pressure;Samples;Min_cycle;Max_cycle;Signal;HPM_P1;HPM_P2
2021/04/19 00:00:53;;;;;;;24.27;16.62;;;;;;;10.00;85.92;100631.52;1716163;81;30685;-79
2021/04/19 00:03:19;;;;;;;21.93;16.30;;;;;;;9.98;86.02;100623.50;1720148;81;26084;-79
2021/04/19 00:05:45;;;;;;;21.50;15.63;;;;;;;9.95;86.03;100608.96;1727113;81;25704;-75
2021/04/19 00:08:11;;;;;;;21.53;16.30;;;;;;;9.93;86.17;100610.92;1720353;81;25765;-79
2021/04/19 00:10:37;;;;;;;22.35;15.98;;;;;;;9.90;86.24;100605.17;1720144;81;33737;-80
2021/04/19 00:13:03;;;;;;;23.38;17.45;;;;;;;9.86;86.25;100608.59;1720326;81;30749;-79
2021/04/19 00:15:31;;;;;;;23.40;17.25;;;;;;;9.84;86.39;100600.09;1720146;81;25751;-79
2021/04/19 00:17:57;;;;;;;24.37;16.10;;;;;;;9.82;86.31;100602.52;1718567;81;25715;-80
2021/04/19 00:20:23;;;;;;;25.70;16.93;;;;;;;9.80;86.30;100600.08;1719935;81;25936;-80
2021/04/19 00:22:50;;;;;;;21.40;15.68;;;;;;;9.78;86.41;100602.83;1722827;81;25856;-79
2021/04/19 00:25:16;;;;;;;21.33;15.63;;;;;;;9.76;86.35;100600.84;1717440;81;25722;-80
2021/04/19 00:27:43;;;;;;;22.82;16.25;;;;;;;9.76;86.43;100591.71;1719491;81;25864;-79
2021/04/19 00:30:10;;;;;;;23.02;17.87;;;;;;;9.76;86.37;100599.55;1720595;81;25430;-79
2021/04/19 00:32:36;;;;;;;21.00;16.73;;;;;;;9.76;86.46;100600.03;1723487;81;25666;-79
2021/04/19 00:35:07;;;;;;;24.27;18.67;;;;;;;9.73;86.43;100601.16;1719308;81;35229;-79
2021/04/19 00:37:34;;;;;;;24.70;19.25;;;;;;;9.71;86.52;100601.83;1725253;81;26261;-79
2021/04/19 00:40:00;;;;;;;28.73;19.67;;;;;;;9.72;86.54;100603.94;1716902;82;25949;-79
2021/04/19 00:42:26;;;;;;;27.17;19.65;;;;;;;9.70;86.54;100606.69;1719455;81;25956;-80
2021/04/19 00:44:52;;;;;;;28.23;20.23;;;;;;;9.73;86.54;100612.09;1720771;81;25862;-79
2021/04/19 00:47:18;;;;;;;25.87;19.73;;;;;;;9.76;86.47;100613.09;1719678;81;35687;-80
2021/04/19 00:49:43;;;;;;;24.63;19.80;;;;;;;9.77;86.37;100615.56;1723559;81;25788;-80
2021/04/19 00:52:10;;;;;;;26.63;19.83;;;;;;;9.78;86.33;100622.41;1718583;81;26403;-80
2021/04/19 00:54:37;;;;;;;28.30;21.10;;;;;;;9.82;86.36;100622.94;1698424;82;25806;-80
2021/04/19 00:57:04;;;;;;;24.27;19.70;;;;;;;9.87;86.27;100623.77;1722416;81;25827;-79
2021/04/19 00:59:30;;;;;;;27.25;20.27;;;;;;;9.89;86.11;100625.74;1722294;81;25756;-79
2021/04/19 01:01:58;;;;;;;26.95;21.00;;;;;;;9.84;85.81;100619.66;1721376;81;25815;-80
2021/04/19 01:04:26;;;;;;;27.45;21.37;;;;;;;9.72;85.66;100620.41;1696425;81;26144;-80
2021/04/19 01:06:53;;;;;;;27.17;20.17;;;;;;;9.49;85.78;100607.05;1723204;81;26313;-74
2021/04/19 01:09:19;;;;;;;26.50;20.65;;;;;;;9.63;85.93;100627.02;1678466;82;25828;-74
2021/04/19 01:11:46;;;;;;;31.82;22.58;;;;;;;9.64;85.87;100624.77;1717589;81;25746;-74
2021/04/19 01:14:11;;;;;;;27.40;20.73;;;;;;;9.68;86.03;100630.81;1721949;81;29798;-74
2021/04/19 01:16:37;;;;;;;27.93;20.53;;;;;;;9.74;86.02;100628.92;1723087;81;26155;-74
2021/04/19 01:19:04;;;;;;;29.50;21.12;;;;;;;9.76;85.72;100624.83;1722257;81;25764;-74
2021/04/19 01:21:31;;;;;;;27.20;22.15;;;;;;;9.70;85.39;100621.54;1718582;81;25743;-75
2021/04/19 01:23:57;;;;;;;25.77;20.33;;;;;;;9.69;85.49;100621.22;1717881;81;34598;-74
2021/04/19 01:26:23;;;;;;;26.85;20.40;;;;;;;9.70;85.47;100624.15;1721284;81;26463;-74
2021/04/19 01:28:52;;;;;;;32.38;24.47;;;;;;;9.70;85.36;100618.44;1717357;81;25863;-74
2021/04/19 01:31:20;;;;;;;28.05;22.75;;;;;;;9.73;85.38;100621.23;1721072;81;31412;-74
2021/04/19 01:33:46;;;;;;;28.07;20.05;;;;;;;9.74;85.35;100611.95;1720581;81;25763;-79
2021/04/19 01:36:14;;;;;;;26.62;21.02;;;;;;;9.75;85.13;100616.19;1722815;81;25643;-79
2021/04/19 01:38:40;;;;;;;26.65;20.97;;;;;;;9.75;85.04;100615.38;1697181;82;25763;-79
2021/04/19 01:41:06;;;;;;;28.23;22.77;;;;;;;9.61;84.39;100612.02;1718742;81;26453;-79
2021/04/19 01:43:32;;;;;;;30.68;22.65;;;;;;;9.47;84.70;100616.81;1722868;81;25756;-79
2021/04/19 01:46:01;;;;;;;31.48;23.87;;;;;;;9.46;85.03;100617.77;1716800;81;26658;-79
2021/04/19 01:48:28;;;;;;;30.85;23.57;;;;;;;9.48;85.13;100611.92;1720400;81;25780;-79
2021/04/19 01:50:54;;;;;;;28.77;20.75;;;;;;;9.49;85.26;100607.05;1718736;82;25747;-79
2021/04/19 01:53:21;;;;;;;28.10;21.55;;;;;;;9.52;85.10;100618.95;1721599;81;25883;-80
2021/04/19 01:55:48;;;;;;;24.75;19.73;;;;;;;9.50;84.84;100615.70;1720284;81;26145;-79
2021/04/19 01:58:24;;;;;;;27.35;19.90;;;;;;;9.50;84.75;100617.81;1722183;81;25839;-79
2021/04/19 02:00:58;;;;;;;27.00;20.23;;;;;;;9.47;84.51;100617.30;1719997;81;25708;-76
2021/04/19 02:03:52;;;;;;;24.70;19.73;;;;;;;9.46;84.51;100604.72;1721153;81;25918;-75
2021/04/19 02:06:43;;;;;;;25.60;19.60;;;;;;;9.50;84.48;100615.20;1668056;84;25921;-76
2021/04/19 02:09:30;;;;;;;25.20;20.75;;;;;;;9.45;84.10;100608.80;1576058;90;26068;-75
2021/04/19 02:12:29;;;;;;;24.52;18.92;;;;;;;9.40;84.05;100610.55;1575763;90;25744;-76
2021/04/19 02:15:07;;;;;;;25.25;19.48;;;;;;;9.34;83.87;100608.55;1575122;90;26020;-76
2021/04/19 02:18:03;;;;;;;24.55;18.85;;;;;;;9.29;83.91;100608.18;1573894;90;25701;-76
2021/04/19 02:20:40;;;;;;;27.52;20.45;;;;;;;9.24;83.88;100609.11;1573053;90;26545;-75
2021/04/19 02:23:23;;;;;;;22.75;19.00;;;;;;;9.11;83.50;100602.50;1576197;90;25818;-76
2021/04/19 02:26:10;;;;;;;23.50;19.17;;;;;;;9.07;83.81;100609.46;1574172;90;25768;-73
2021/04/19 02:28:41;;;;;;;28.02;20.05;;;;;;;9.06;83.78;100604.73;1565427;90;25791;-80
2021/04/19 02:31:12;;;;;;;25.90;19.87;;;;;;;9.05;83.70;100602.27;1572377;90;25976;-80
2021/04/19 02:33:41;;;;;;;;;;;;;;;8.99;83.58;100602.38;1576628;90;25934;-80
2021/04/19 02:36:11;;;;;;;25.52;20.80;;;;;;;8.93;83.46;100601.67;1556771;90;25876;-80
2021/04/19 02:39:01;;;;;;;27.40;21.35;;;;;;;8.87;83.57;100603.58;1573592;90;25834;-80
2021/04/19 02:41:29;;;;;;;25.30;19.90;;;;;;;8.85;83.70;100598.50;1611460;86;25833;-80
2021/04/19 02:46:33;;;;;;;26.47;20.93;;;;;;;8.90;83.50;100604.58;1825411;76;34336;-78
2021/04/19 02:49:00;;;;;;;25.95;19.27;;;;;;;8.79;83.40;100600.89;1795586;77;25723;-79
2021/04/19 02:51:30;;;;;;;23.35;17.95;;;;;;;8.75;83.41;100601.64;1795395;77;25780;-79
2021/04/19 02:53:56;;;;;;;21.73;18.00;;;;;;;8.74;83.53;100603.92;1798969;77;25713;-78
2021/04/19 02:56:22;;;;;;;29.98;19.85;;;;;;;8.74;83.45;100601.81;1796073;77;25725;-79
2021/04/19 02:58:53;;;;;;;26.40;19.45;;;;;;;8.69;83.39;100602.23;1797920;77;25712;-78
2021/04/19 03:01:25;;;;;;;28.50;21.62;;;;;;;8.66;83.68;100597.33;1801949;77;25379;-79
2021/04/19 03:03:58;;;;;;;25.35;18.27;;;;;;;8.69;83.96;100606.14;1800880;77;26253;-80
2021/04/19 03:06:27;;;;;;;27.30;19.57;;;;;;;8.68;83.68;100598.49;1796027;77;25758;-80
2021/04/19 03:08:57;;;;;;;27.00;18.55;;;;;;;8.62;83.73;100605.92;1795874;77;25688;-80
2021/04/19 03:11:43;;;;;;;26.20;18.45;;;;;;;8.67;83.85;100602.86;1796156;77;25749;-80
2021/04/19 03:14:13;;;;;;;23.42;18.62;;;;;;;8.68;83.71;100606.31;1795779;77;25780;-80
2021/04/19 03:16:48;;;;;;;24.20;17.23;;;;;;;8.69;83.56;100604.03;1796531;77;26889;-79
2021/04/19 03:19:20;;;;;;;25.57;17.85;;;;;;;8.63;83.33;100604.13;1793941;77;26502;-80
2021/04/19 03:21:49;;;;;;;21.15;16.60;;;;;;;8.61;83.44;100609.48;1794393;77;25755;-80
2021/04/19 03:24:17;;;;;;;22.42;17.27;;;;;;;8.60;83.43;100604.43;1796209;77;25710;-80
2021/04/19 03:26:52;;;;;;;21.12;16.48;;;;;;;8.58;83.34;100608.47;1788760;77;25710;-79
2021/04/19 03:29:21;;;;;;;21.62;17.17;;;;;;;8.56;83.35;100610.88;1796561;77;25771;-80
2021/04/19 03:32:03;;;;;;;25.68;17.15;;;;;;;8.55;83.36;100613.16;1795868;77;26613;-80
2021/04/19 03:34:32;;;;;;;20.50;15.83;;;;;;;8.51;83.32;100607.44;1789533;77;25729;-80
2021/04/19 03:37:19;;;;;;;22.95;16.37;;;;;;;8.49;83.39;100609.36;1766241;77;25842;-79
2021/04/19 03:39:52;;;;;;;25.27;16.57;;;;;;;8.53;83.47;100616.39;1798337;77;25739;-79
2021/04/19 03:42:19;;;;;;;21.90;16.65;;;;;;;8.57;83.86;100612.54;1794997;77;25770;-79
2021/04/19 03:44:47;;;;;;;21.42;17.07;;;;;;;8.60;83.88;100619.58;1764104;77;25814;-79
2021/04/19 03:47:16;;;;;;;21.40;16.15;;;;;;;8.68;84.16;100608.42;1798663;77;25773;-79
2021/04/19 03:49:51;;;;;;;23.30;18.55;;;;;;;8.74;84.05;100612.23;1792727;77;26555;-80
2021/04/19 03:52:24;;;;;;;25.05;18.75;;;;;;;8.78;83.94;100610.95;1794630;77;25901;-81
2021/04/19 03:54:52;;;;;;;25.32;18.48;;;;;;;8.75;83.68;100609.95;1795896;77;26912;-79
2021/04/19 03:57:23;;;;;;;22.45;17.45;;;;;;;8.75;83.81;100617.28;1794135;77;25725;-80
2021/04/19 03:59:57;;;;;;;24.50;18.45;;;;;;;8.75;83.67;100617.28;1796678;77;26118;-80
2021/04/19 04:02:26;;;;;;;23.70;19.07;;;;;;;8.72;83.54;100618.88;1739370;79;25307;-80
2021/04/19 04:04:57;;;;;;;22.93;18.00;;;;;;;8.68;83.64;100625.85;1793685;77;25712;-80
2021/04/19 04:07:27;;;;;;;25.85;17.98;;;;;;;8.66;83.72;100628.10;1792981;77;26309;-80
2021/04/19 04:09:55;;;;;;;27.60;20.55;;;;;;;8.65;83.62;100626.47;1797314;77;26240;-80
2021/04/19 04:12:22;;;;;;;28.55;19.35;;;;;;;8.62;83.41;100633.28;1741420;79;25863;-75
2021/04/19 04:14:56;;;;;;;31.15;20.70;;;;;;;8.58;83.39;100631.92;1795527;77;25642;-75
2021/04/19 04:17:24;;;;;;;27.60;20.20;;;;;;;8.49;83.06;100630.68;1794626;77;25709;-75
2021/04/19 04:19:58;;;;;;;24.23;18.27;;;;;;;8.39;83.09;100629.41;1794046;77;26010;-75
2021/04/19 04:22:24;;;;;;;22.02;17.95;;;;;;;8.35;83.24;100631.46;1780080;77;25765;-74
2021/04/19 04:24:52;;;;;;;25.23;17.05;;;;;;;8.35;83.38;100639.28;1772048;79;25834;-74
2021/04/19 04:27:18;;;;;;;22.10;16.05;;;;;;;8.33;83.39;100636.48;1794078;77;25261;-74
2021/04/19 04:29:44;;;;;;;18.70;15.17;;;;;;;8.31;83.48;100634.00;1792300;77;30701;-74
2021/04/19 04:32:21;;;;;;;19.32;14.30;;;;;;;8.31;83.48;100635.30;1719923;82;26106;-75
2021/04/19 04:34:49;;;;;;;19.57;14.40;;;;;;;8.26;83.42;100629.70;1719907;82;26002;-75
2021/04/19 04:37:15;;;;;;;18.60;14.13;;;;;;;8.30;83.69;100631.55;1699264;82;25971;-74
2021/04/19 04:39:42;;;;;;;19.67;13.70;;;;;;;8.32;83.72;100635.66;1720595;82;26476;-75
2021/04/19 04:42:13;;;;;;;17.23;12.82;;;;;;;8.36;83.80;100634.88;1695440;82;25643;-75
2021/04/19 04:44:43;;;;;;;17.77;12.35;;;;;;;8.37;83.81;100623.48;1719437;82;26536;-76
2021/04/19 04:47:31;;;;;;;20.35;13.65;;;;;;;8.41;83.92;100622.28;1722007;82;25977;-74
2021/04/19 04:50:08;;;;;;;18.35;13.43;;;;;;;8.43;84.03;100618.57;1715236;82;25909;-76
2021/04/19 04:52:45;;;;;;;20.50;12.88;;;;;;;8.53;84.46;100625.02;1713959;82;26547;-80
2021/04/19 04:55:14;;;;;;;18.25;13.95;;;;;;;8.61;84.58;100628.20;1719598;82;26662;-80
2021/04/19 04:57:44;;;;;;;21.42;16.05;;;;;;;8.72;84.83;100624.58;1722802;82;25814;-81
2021/04/19 05:00:13;;;;;;;21.62;16.50;;;;;;;8.78;84.85;100630.02;1717314;82;26588;-80
2021/04/19 05:02:41;;;;;;;25.57;17.47;;;;;;;8.85;85.07;100639.39;1726154;82;25964;-80
2021/04/19 05:05:10;;;;;;;24.75;18.90;;;;;;;8.93;85.20;100645.17;1724868;82;26410;-80
2021/04/19 05:07:36;;;;;;;25.12;19.07;;;;;;;9.02;85.48;100646.40;1725485;82;25687;-80
2021/04/19 05:10:05;;;;;;;26.97;19.65;;;;;;;9.13;85.72;100636.23;1784851;77;26025;-80
2021/04/19 05:12:32;;;;;;;26.70;20.65;;;;;;;9.24;85.96;100648.23;1795432;77;25765;-81
2021/04/19 05:15:10;;;;;;;33.73;25.37;;;;;;;9.30;86.00;100645.02;1792742;77;25818;-81
2021/04/19 05:17:41;;;;;;;41.60;27.87;;;;;;;9.40;86.23;100639.25;1793664;77;25875;-81
2021/04/19 05:20:09;;;;;;;38.83;27.67;;;;;;;9.49;86.51;100636.22;1772048;77;25733;-79
2021/04/19 05:22:35;;;;;;;36.88;29.18;;;;;;;9.62;86.75;100636.65;1779409;77;26476;-79
2021/04/19 05:25:07;;;;;;;36.70;26.37;;;;;;;9.73;86.90;100633.78;1793014;77;25730;-79
2021/04/19 05:27:33;;;;;;;32.40;23.62;;;;;;;9.90;87.10;100636.05;1792659;77;25735;-81
2021/04/19 05:30:00;;;;;;;26.12;21.37;;;;;;;10.04;87.33;100629.44;1795250;77;25821;-80
2021/04/19 05:32:28;;;;;;;29.70;24.63;;;;;;;10.14;87.23;100634.53;1793798;77;25980;-75
2021/04/19 05:34:56;;;;;;;26.33;21.52;;;;;;;10.25;87.31;100631.64;1791868;77;25632;-76
2021/04/19 05:37:24;;;;;;;25.70;19.37;;;;;;;10.35;87.43;100630.27;1795402;77;25784;-75
2021/04/19 05:39:50;;;;;;;27.90;18.17;;;;;;;10.43;87.29;100631.60;1793728;77;25486;-76
2021/04/19 05:42:16;;;;;;;24.32;18.57;;;;;;;10.52;87.28;100637.18;1793849;77;25851;-75
2021/04/19 05:44:44;;;;;;;25.37;19.80;;;;;;;10.68;87.49;100640.34;1773932;79;25866;-75
2021/04/19 05:47:12;;;;;;;28.75;20.95;;;;;;;10.79;87.43;100635.31;1791175;77;25867;-75
2021/04/19 05:49:40;;;;;;;27.55;21.05;;;;;;;10.86;87.25;100632.40;1791421;77;25260;-75
2021/04/19 05:52:09;;;;;;;28.42;22.48;;;;;;;10.93;87.02;100635.17;1792043;77;25678;-75
2021/04/19 05:54:36;;;;;;;26.80;20.50;;;;;;;10.98;87.00;100632.91;1765124;78;25802;-80
2021/04/19 05:57:23;;;;;;;27.17;20.85;;;;;;;11.01;86.77;100628.66;1791339;77;25800;-80
2021/04/19 06:00:00;;;;;;;27.87;23.12;;;;;;;11.01;86.70;100634.70;1747166;78;26485;-80
2021/04/19 06:02:57;;;;;;;34.83;23.47;;;;;;;11.06;86.78;100634.23;1789281;77;26551;-80
2021/04/19 06:05:43;;;;;;;28.85;22.85;;;;;;;11.03;86.36;100628.83;1754405;80;25723;-80
2021/04/19 06:08:28;;;;;;;26.45;22.17;;;;;;;11.05;86.40;100628.68;1789585;77;25330;-80
2021/04/19 06:11:05;;;;;;;29.10;23.32;;;;;;;11.04;86.38;100633.56;1770580;78;25763;-78
2021/04/19 06:13:35;;;;;;;30.30;22.82;;;;;;;11.01;86.42;100631.27;1747860;80;26740;-73
2021/04/19 06:16:03;;;;;;;26.15;22.25;;;;;;;11.07;86.57;100631.92;1789775;77;25303;-73
2021/04/19 06:18:31;;;;;;;26.62;22.70;;;;;;;11.11;86.11;100631.95;1791582;77;26394;-73
2021/04/19 06:20:58;;;;;;;27.85;22.20;;;;;;;11.09;85.70;100624.74;1728349;80;26503;-72
2021/04/19 06:23:24;;;;;;;26.65;22.07;;;;;;;11.10;86.02;100625.91;1753137;80;25966;-72
2021/04/19 06:25:51;;;;;;;27.07;22.35;;;;;;;11.19;85.89;100621.98;1775884;78;25845;-78
2021/04/19 06:28:17;;;;;;;25.20;20.10;;;;;;;11.22;85.85;100621.16;1769925;78;25755;-74
2021/04/19 06:30:45;;;;;;;21.42;19.02;;;;;;;11.22;85.56;100614.62;1756231;80;25801;-74
2021/04/19 06:33:17;;;;;;;21.30;18.60;;;;;;;11.23;85.61;100614.94;1789226;77;25711;-78
2021/04/19 06:35:45;;;;;;;24.30;18.98;;;;;;;11.29;85.64;100616.92;1756515;80;25723;-72
2021/04/19 06:38:11;;;;;;;24.02;19.45;;;;;;;11.28;84.83;100614.45;1792772;77;26185;-79
2021/04/19 06:40:40;;;;;;;23.87;18.77;;;;;;;11.25;84.92;100616.09;1788666;77;25686;-79
2021/04/19 06:43:07;;;;;;;24.00;17.43;;;;;;;11.22;84.56;100619.85;1753882;80;25700;-77
2021/04/19 06:45:36;;;;;;;23.35;19.17;;;;;;;11.24;85.02;100619.20;1791158;77;26306;-79
2021/04/19 06:48:08;;;;;;;29.70;20.17;;;;;;;11.26;85.16;100619.84;1796105;77;25694;-79
2021/04/19 06:50:36;;;;;;;25.55;19.82;;;;;;;11.34;85.22;100611.99;1769064;77;25739;-72
2021/04/19 06:53:03;;;;;;;33.30;20.12;;;;;;;11.48;85.51;100612.31;1793510;77;25771;-73
2021/04/19 06:55:29;;;;;;;24.50;18.95;;;;;;;11.60;85.50;100613.63;1792467;77;25513;-79
2021/04/19 06:58:00;;;;;;;25.68;20.48;;;;;;;11.67;85.16;100608.54;1796185;77;26499;-79
2021/04/19 07:00:30;;;;;;;24.02;19.87;;;;;;;11.73;84.51;100607.87;1768521;77;25355;-79
2021/04/19 07:03:03;;;;;;;28.40;20.90;;;;;;;11.74;84.04;100612.14;1794849;77;25849;-78
2021/04/19 07:05:36;;;;;;;26.93;20.27;;;;;;;11.77;84.43;100611.30;1797370;77;25797;-78
2021/04/19 07:08:29;;;;;;;28.17;22.20;;;;;;;11.86;84.58;100608.20;1795651;77;25968;-78
2021/04/19 07:11:06;;;;;;;27.07;20.35;;;;;;;11.92;84.38;100606.72;1794338;77;25537;-72
2021/04/19 07:13:37;;;;;;;24.10;18.35;;;;;;;11.97;84.49;100612.27;1794783;77;26490;-77
2021/04/19 07:16:04;;;;;;;25.08;19.98;;;;;;;12.06;83.99;100608.66;1794442;77;26582;-78
2021/04/19 07:18:31;;;;;;;23.87;17.77;;;;;;;12.11;84.03;100607.67;1793665;77;25818;-77
2021/04/19 07:20:57;;;;;;;29.23;22.87;;;;;;;12.23;84.22;100611.23;1794499;77;25716;-81
2021/04/19 07:23:23;;;;;;;28.87;22.20;;;;;;;12.31;83.97;100609.89;1796358;77;34860;-81
2021/04/19 07:25:49;;;;;;;23.42;19.67;;;;;;;12.43;84.14;100613.25;1796587;77;25288;-73
2021/04/19 07:28:15;;;;;;;27.98;19.57;;;;;;;12.55;83.24;100607.16;1794068;77;26494;-72
2021/04/19 07:30:42;;;;;;;24.95;18.90;;;;;;;12.59;83.13;100611.55;1762644;79;25803;-73
2021/04/19 07:33:32;;;;;;;26.25;19.62;;;;;;;12.65;83.24;100603.80;1740212;79;26302;-78
2021/04/19 07:36:20;;;;;;;21.10;17.27;;;;;;;12.78;83.39;100607.69;1741763;80;25783;-78
2021/04/19 07:38:47;;;;;;;22.85;18.30;;;;;;;12.82;81.20;100607.64;1743077;79;25723;-80
2021/04/19 07:41:14;;;;;;;22.90;17.60;;;;;;;12.83;82.23;100602.73;1742254;79;25739;-73
2021/04/19 07:43:42;;;;;;;23.45;17.82;;;;;;;12.93;81.67;100604.64;1742737;80;26390;-74
2021/04/19 07:46:15;;;;;;;21.40;16.20;;;;;;;13.00;81.59;100602.94;1741354;80;25792;-75
2021/04/19 07:48:46;;;;;;;20.60;16.45;;;;;;;13.08;80.76;100599.45;1754067;79;25772;-76
2021/04/19 07:51:37;;;;;;;20.75;15.88;;;;;;;13.20;81.75;100601.96;1750132;79;25743;-72
2021/04/19 07:54:21;;;;;;;22.87;17.90;;;;;;;13.33;80.00;100602.22;1755352;79;25707;-71
2021/04/19 07:56:58;;;;;;;21.62;17.70;;;;;;;13.44;79.48;100597.04;1753985;79;25857;-72
2021/04/19 07:59:31;;;;;;;20.82;17.55;;;;;;;13.49;79.93;100603.89;1752880;79;26222;-72
2021/04/19 08:02:12;;;;;;;22.07;16.35;;;;;;;13.61;80.65;100599.02;1740923;80;26641;-77
2021/04/19 08:04:51;;;;;;;24.47;18.00;;;;;;;13.66;79.47;100604.55;1743721;80;25327;-76
2021/04/19 08:07:21;;;;;;;20.50;15.90;;;;;;;13.76;80.18;100602.48;1752179;79;26498;-78
2021/04/19 08:09:57;;;;;;;24.90;15.35;;;;;;;13.96;80.30;100602.76;1769660;78;25838;-77
2021/04/19 08:12:42;;;;;;;23.42;15.43;;;;;;;14.11;79.86;100600.66;1743754;80;26820;-77
2021/04/19 08:15:17;;;;;;;18.82;12.60;;;;;;;14.26;79.84;100598.00;1754612;79;25866;-79
2021/04/19 08:17:43;;;;;;;21.52;15.00;;;;;;;14.38;77.57;100597.86;1752705;79;26493;-76
2021/04/19 08:20:13;;;;;;;18.77;14.63;;;;;;;14.46;78.54;100601.70;1747347;80;25912;-78
2021/04/19 08:22:43;;;;;;;20.70;14.60;;;;;;;14.54;77.68;100603.41;1767807;78;25921;-76
2021/04/19 08:25:17;;;;;;;18.55;12.50;;;;;;;14.61;78.14;100603.81;1749089;78;26416;-82
2021/04/19 08:28:02;;;;;;;18.52;13.35;;;;;;;14.73;77.77;100605.48;1738908;80;26147;-76
2021/04/19 08:30:28;;;;;;;19.00;12.73;;;;;;;14.82;77.39;100606.17;1747242;80;25391;-78
2021/04/19 08:32:57;;;;;;;16.48;12.82;;;;;;;14.87;76.62;100607.23;1747520;80;25781;-76
2021/04/19 08:35:28;;;;;;;19.03;13.60;;;;;;;14.90;76.50;100601.30;1743058;80;25687;-75
2021/04/19 08:38:00;;;;;;;18.17;11.88;;;;;;;14.94;76.19;100603.34;1742086;80;26209;-78
2021/04/19 08:40:33;;;;;;;16.20;12.15;;;;;;;14.98;74.06;100596.72;1745232;80;25840;-76
2021/04/19 08:43:09;;;;;;;20.02;13.53;;;;;;;15.03;75.78;100597.45;1771996;78;25777;-74
2021/04/19 08:45:43;;;;;;;18.90;14.38;;;;;;;15.16;75.56;100602.03;1720472;80;25687;-80
2021/04/19 08:48:13;;;;;;;19.90;13.20;;;;;;;15.20;75.08;100597.52;1752802;79;25807;-75
2021/04/19 08:50:43;;;;;;;15.72;11.95;;;;;;;15.26;75.17;100599.39;1751959;79;25371;-76
2021/04/19 08:53:15;;;;;;;16.65;11.95;;;;;;;15.37;74.69;100605.16;1752189;79;25771;-76
2021/04/19 08:55:44;;;;;;;15.05;11.18;;;;;;;15.46;74.78;100604.81;1732421;81;25664;-76
2021/04/19 08:58:13;;;;;;;16.70;11.13;;;;;;;15.55;73.47;100598.92;1754128;79;26633;-74
2021/04/19 09:00:44;;;;;;;18.05;10.43;;;;;;;15.59;73.40;100595.39;1755237;79;25763;-77
2021/04/19 09:03:11;;;;;;;20.23;12.28;;;;;;;15.67;73.37;100597.88;1753155;79;25667;-77
2021/04/19 09:05:37;;;;;;;16.62;12.15;;;;;;;15.76;73.23;100596.75;1752868;79;26009;-76
2021/04/19 09:08:12;;;;;;;14.03;10.50;;;;;;;15.86;73.04;100592.45;1754015;79;25778;-75
2021/04/19 09:11:06;;;;;;;13.25;10.63;;;;;;;15.96;72.65;100596.89;1750401;79;25826;-78
2021/04/19 09:13:54;;;;;;;14.65;9.28;;;;;;;16.07;72.83;100594.17;1751950;79;25799;-80
2021/04/19 09:16:24;;;;;;;12.00;9.25;;;;;;;16.22;72.17;100595.38;1742695;79;25884;-76
2021/04/19 09:18:59;;;;;;;11.12;9.28;;;;;;;16.25;71.50;100589.20;1754220;79;25753;-77
2021/04/19 09:21:49;;;;;;;14.93;8.75;;;;;;;16.33;71.08;100598.27;1753758;79;25850;-80
2021/04/19 09:24:17;;;;;;;12.15;9.13;;;;;;;16.36;69.96;100595.73;1753798;79;25883;-80
2021/04/19 09:26:58;;;;;;;13.65;9.03;;;;;;;16.42;69.22;100593.14;1753076;79;26106;-73
2021/04/19 09:29:35;;;;;;;14.18;9.23;;;;;;;16.46;69.32;100586.95;1749589;79;25762;-76
2021/04/19 09:32:10;;;;;;;13.88;9.30;;;;;;;16.48;68.29;100583.62;1752901;79;25846;-78
2021/04/19 09:34:53;;;;;;;15.15;9.43;;;;;;;16.39;68.41;100591.38;1729463;79;25857;-80
2021/04/19 09:37:39;;;;;;;11.53;8.30;;;;;;;16.47;68.80;100582.48;1751060;79;25852;-78
2021/04/19 09:40:09;;;;;;;13.68;9.55;;;;;;;16.49;67.58;100585.23;1753062;79;25658;-80
2021/04/19 09:42:56;;;;;;;;;;;;;;;16.50;67.39;100584.21;1752433;79;25903;-81
2021/04/19 09:45:51;;;;;;;11.70;8.08;;;;;;;16.55;67.20;100579.67;1750805;79;25313;-74
2021/04/19 09:48:31;;;;;;;14.35;8.53;;;;;;;16.68;66.96;100581.54;1691563;83;25856;-77
2021/04/19 09:51:12;;;;;;;10.68;7.72;;;;;;;16.76;66.23;100578.71;1664128;84;25757;-76
2021/04/19 09:53:36;;;;;;;10.48;7.50;;;;;;;16.82;65.11;100586.66;1672253;83;25902;-76
2021/04/19 09:56:01;;;;;;;14.47;7.50;;;;;;;16.83;62.73;100579.55;1669745;83;31143;-78
2021/04/19 09:58:29;;;;;;;15.83;7.47;;;;;;;16.81;60.13;100571.84;1662776;84;34905;-80
2021/04/19 10:01:00;;;;;;;11.10;7.17;;;;;;;16.82;61.30;100580.06;1691087;83;25876;-81
2021/04/19 10:03:27;;;;;;;12.07;7.30;;;;;;;16.91;61.75;100575.40;1696251;83;26700;-79
2021/04/19 10:05:55;;;;;;;12.15;7.25;;;;;;;17.01;61.25;100573.19;1692856;83;26565;-79
2021/04/19 10:08:26;;;;;;;11.73;7.08;;;;;;;17.09;60.91;100566.89;1694441;83;25833;-79
2021/04/19 10:10:53;;;;;;;10.98;7.60;;;;;;;17.19;59.96;100575.75;1663802;84;26429;-77
2021/04/19 10:13:32;;;;;;;11.15;7.40;;;;;;;17.26;59.12;100575.22;1693715;83;25945;-78
2021/04/19 10:16:07;;;;;;;13.90;6.62;;;;;;;17.24;58.59;100575.92;1694795;83;26411;-77
2021/04/19 10:18:34;;;;;;;9.70;6.60;;;;;;;17.27;57.19;100579.51;1655247;84;25572;-79
2021/04/19 10:21:01;;;;;;;12.80;7.58;;;;;;;17.24;57.53;100577.25;1711019;82;25978;-78
2021/04/19 10:23:39;;;;;;;11.00;6.97;;;;;;;17.26;57.88;100581.31;1709492;82;25772;-78
2021/04/19 10:26:05;;;;;;;9.70;7.20;;;;;;;17.26;57.20;100568.11;1723944;80;25339;-77
2021/04/19 10:28:45;;;;;;;9.98;6.50;;;;;;;17.31;57.76;100566.98;1721902;80;26450;-76
2021/04/19 10:31:16;;;;;;;12.73;7.58;;;;;;;17.32;56.32;100567.80;1725201;80;25767;-76
2021/04/19 10:33:46;;;;;;;11.03;7.53;;;;;;;17.36;56.00;100566.90;1723235;80;25937;-79
2021/04/19 10:36:22;;;;;;;10.78;7.30;;;;;;;17.38;54.38;100567.00;1725209;80;25881;-80
2021/04/19 10:38:52;;;;;;;10.30;6.75;;;;;;;17.40;54.88;100568.10;1726999;80;25683;-78
2021/04/19 10:41:31;;;;;;;;;;;;;;;17.48;55.29;100566.56;1719463;80;25835;-73
2021/04/19 10:43:59;;;;;;;11.15;7.35;;;;;;;17.61;54.94;100560.46;1718361;80;25740;-76
2021/04/19 10:46:32;;;;;;;13.10;6.75;;;;;;;17.72;54.21;100564.59;1723749;81;25974;-72
2021/04/19 10:49:00;;;;;;;11.65;6.80;;;;;;;17.74;54.30;100565.20;1750634;79;25699;-75
2021/04/19 10:51:31;;;;;;;11.40;7.42;;;;;;;17.79;54.26;100560.66;1753167;79;25680;-75
2021/04/19 10:54:02;;;;;;;9.40;6.45;;;;;;;17.89;52.79;100560.21;1749424;79;25911;-78
2021/04/19 10:56:29;;;;;;;9.00;6.37;;;;;;;17.95;53.53;100565.98;1750685;79;25897;-78
2021/04/19 10:59:03;;;;;;;14.80;9.40;;;;;;;18.03;52.77;100567.59;1753781;79;25840;-82
2021/04/19 11:01:38;;;;;;;11.57;7.08;;;;;;;18.01;52.39;100563.04;1750092;79;26586;-74
2021/04/19 11:04:07;;;;;;;10.05;6.60;;;;;;;17.95;52.14;100549.63;1750709;79;25731;-77
2021/04/19 11:06:35;;;;;;;14.63;6.15;;;;;;;17.95;51.09;100551.44;1727794;79;26677;-77
2021/04/19 11:09:17;;;;;;;9.13;5.83;;;;;;;17.97;50.87;100555.50;1754170;79;25956;-77
2021/04/19 11:11:45;;;;;;;10.55;6.87;;;;;;;17.94;51.00;100551.14;1752678;79;25740;-77
2021/04/19 11:14:23;;;;;;;12.23;7.67;;;;;;;17.86;50.42;100546.89;1749467;79;26474;-76
2021/04/19 11:17:05;;;;;;;10.85;6.72;;;;;;;17.97;50.78;100550.72;1725686;79;25796;-77
2021/04/19 11:19:42;;;;;;;10.98;6.70;;;;;;;17.97;49.12;100538.30;1752590;79;25631;-76
2021/04/19 11:22:28;;;;;;;9.73;6.35;;;;;;;17.91;49.19;100551.56;1750612;79;26406;-77
2021/04/19 11:25:15;;;;;;;7.95;5.58;;;;;;;17.96;49.32;100554.41;1752751;79;26719;-73
2021/04/19 11:27:43;;;;;;;7.37;5.75;;;;;;;18.05;49.47;100551.81;1753307;79;25780;-77
2021/04/19 11:30:26;;;;;;;8.30;5.78;;;;;;;18.16;49.45;100548.51;1752801;79;25323;-77
2021/04/19 11:33:12;;;;;;;8.18;5.80;;;;;;;18.26;48.61;100546.75;1753633;81;25709;-76
2021/04/19 11:35:47;;;;;;;9.55;5.55;;;;;;;18.30;48.19;100551.91;1752914;81;25767;-76
2021/04/19 11:38:23;;;;;;;9.75;5.90;;;;;;;18.37;48.69;100544.75;1749938;79;26019;-76
2021/04/19 11:41:02;;;;;;;12.85;5.95;;;;;;;18.45;48.35;100542.37;1752104;79;25901;-78